createdAt,value
2018-08-20T00:01:54.996Z,99.90
2018-08-20T00:04:23.525Z,1.00
2018-08-20T00:06:55.671Z,99.90
2018-08-20T00:09:34.751Z,99.90
2018-08-20T00:12:04.066Z,1.00
2018-08-20T00:14:32.664Z,99.90
2018-08-20T00:17:01.767Z,1.00
2018-08-20T00:19:30.342Z,99.90
2018-08-20T00:21:58.814Z,99.90
2018-08-20T00:24:27.529Z,99.90
2018-08-20T00:26:58.182Z,99.90
2018-08-20T00:29:26.710Z,99.90
2018-08-20T00:31:55.271Z,1.00
2018-08-20T00:34:23.747Z,1.00
2018-08-20T00:36:52.382Z,99.90
2018-08-20T00:39:20.956Z,1.00
2018-08-20T00:41:49.403Z,1.00
2018-08-20T00:44:18.325Z,1.00
2018-08-20T00:46:47.238Z,1.00
2018-08-20T00:49:16.742Z,99.90
2018-08-20T00:51:45.450Z,1.00
2018-08-20T00:54:13.927Z,1.00
2018-08-20T00:56:42.391Z,99.90
2018-08-20T00:59:10.915Z,99.90
2018-08-20T01:01:39.391Z,99.90
2018-08-20T01:04:07.896Z,99.90
2018-08-20T01:06:36.375Z,99.90
2018-08-20T01:09:06.582Z,99.90
2018-08-20T01:11:35.087Z,99.90
2018-08-20T01:14:03.733Z,1.00
2018-08-20T01:16:32.210Z,1.00
2018-08-20T01:19:00.755Z,1.00
2018-08-20T01:21:29.225Z,1.00
2018-08-20T01:23:57.732Z,1.00
2018-08-20T01:26:26.206Z,1.00
2018-08-20T01:28:54.726Z,1.00
2018-08-20T01:31:23.218Z,1.00
2018-08-20T01:33:51.720Z,1.00
2018-08-20T01:36:20.189Z,1.00
2018-08-20T01:38:48.643Z,1.00
2018-08-20T01:41:17.178Z,1.00
2018-08-20T01:43:45.660Z,1.00
2018-08-20T01:46:14.185Z,1.00
2018-08-20T01:48:42.762Z,1.00
2018-08-20T01:51:11.288Z,1.00
2018-08-20T01:53:39.767Z,1.00
2018-08-20T01:56:08.543Z,1.00
2018-08-20T01:58:36.992Z,1.00
2018-08-20T02:01:05.417Z,1.00
2018-08-20T02:03:33.898Z,1.00
2018-08-20T02:06:02.408Z,1.00
2018-08-20T02:08:30.906Z,1.00
2018-08-20T02:10:59.409Z,1.00
2018-08-20T02:13:27.904Z,1.00
2018-08-20T02:15:56.405Z,1.00
2018-08-20T02:18:24.890Z,1.00
2018-08-20T02:20:53.321Z,1.00
2018-08-20T02:23:21.812Z,1.00
2018-08-20T02:25:50.298Z,1.00
2018-08-20T02:28:18.807Z,1.00
2018-08-20T02:30:47.280Z,1.00
2018-08-20T02:33:15.723Z,1.00
2018-08-20T02:35:44.405Z,1.00
2018-08-20T02:38:12.942Z,1.00
2018-08-20T02:40:41.778Z,1.00
2018-08-20T02:43:10.271Z,1.00
2018-08-20T02:45:39.458Z,1.00
2018-08-20T02:48:09.379Z,1.00
2018-08-20T02:50:38.019Z,1.00
2018-08-20T02:53:06.750Z,1.00
2018-08-20T02:55:35.210Z,1.00
2018-08-20T02:58:03.711Z,1.00
2018-08-20T03:00:32.194Z,1.00
2018-08-20T03:03:04.702Z,1.00
2018-08-20T03:05:34.021Z,1.00
2018-08-20T03:08:02.561Z,1.00
2018-08-20T03:10:31.047Z,1.00
2018-08-20T03:12:59.574Z,1.00
2018-08-20T03:15:28.103Z,1.00
2018-08-20T03:17:56.599Z,1.00
2018-08-20T03:20:25.080Z,1.00
2018-08-20T03:22:53.657Z,1.00
2018-08-20T03:25:22.128Z,1.00
2018-08-20T03:27:50.600Z,1.00
2018-08-20T03:30:19.126Z,1.00
2018-08-20T03:32:47.554Z,1.00
2018-08-20T03:35:16.035Z,1.00
2018-08-20T03:37:44.509Z,1.00
2018-08-20T03:40:13.602Z,1.00
2018-08-20T03:42:42.594Z,1.00
2018-08-20T03:45:11.590Z,1.00
2018-08-20T03:47:40.124Z,1.00
2018-08-20T03:50:11.150Z,1.00
2018-08-20T03:52:39.612Z,1.00
2018-08-20T03:55:08.182Z,1.00
2018-08-20T03:57:37.161Z,1.00
2018-08-20T04:00:06.595Z,1.00
2018-08-20T04:02:35.089Z,1.00
2018-08-20T04:05:03.718Z,1.00
2018-08-20T04:07:32.165Z,1.00
2018-08-20T04:10:00.623Z,1.00
2018-08-20T04:12:29.116Z,1.00
2018-08-20T04:14:57.620Z,1.00
2018-08-20T04:17:26.119Z,1.00
2018-08-20T04:19:54.569Z,1.00
2018-08-20T04:22:23.072Z,1.00
2018-08-20T04:24:51.513Z,1.00
2018-08-20T04:27:19.970Z,1.00
2018-08-20T04:29:48.425Z,1.00
2018-08-20T04:32:16.884Z,1.00
2018-08-20T04:34:45.345Z,1.00
2018-08-20T04:37:14.024Z,1.00
2018-08-20T04:39:42.471Z,1.00
2018-08-20T04:42:10.996Z,1.00
2018-08-20T04:44:39.430Z,1.00
2018-08-20T04:47:07.927Z,1.00
2018-08-20T04:49:36.548Z,1.00
2018-08-20T04:52:05.173Z,1.00
2018-08-20T04:54:33.656Z,1.00
2018-08-20T04:57:02.133Z,1.00
2018-08-20T04:59:30.582Z,1.00
2018-08-20T05:01:59.068Z,1.00
2018-08-20T05:04:27.531Z,1.00
2018-08-20T05:06:55.975Z,1.00
2018-08-20T05:09:24.458Z,1.00
2018-08-20T05:11:52.991Z,1.00
2018-08-20T05:14:21.564Z,1.00
2018-08-20T05:16:50.720Z,1.00
2018-08-20T05:19:19.302Z,1.00
2018-08-20T05:21:47.748Z,1.00
2018-08-20T05:24:16.187Z,1.00
2018-08-20T05:26:44.747Z,1.00
2018-08-20T05:29:13.229Z,1.00
2018-08-20T05:31:41.654Z,1.00
2018-08-20T05:34:10.099Z,1.00
2018-08-20T05:36:38.599Z,1.00
2018-08-20T05:39:09.080Z,1.00
2018-08-20T05:41:37.726Z,1.00
2018-08-20T05:44:06.333Z,1.00
2018-08-20T05:46:34.934Z,1.00
2018-08-20T05:49:03.450Z,1.00
2018-08-20T05:51:31.933Z,1.00
2018-08-20T05:54:00.410Z,1.00
2018-08-20T05:56:28.911Z,1.00
2018-08-20T05:58:57.715Z,99.90
2018-08-20T06:01:26.519Z,99.90
2018-08-20T06:03:54.964Z,99.90
2018-08-20T06:06:23.451Z,99.90
2018-08-20T06:08:51.919Z,99.90
2018-08-20T06:11:20.409Z,1.00
2018-08-20T06:13:48.885Z,1.00
2018-08-20T06:16:17.436Z,99.90
2018-08-20T06:18:45.884Z,1.00
2018-08-20T06:21:14.348Z,99.90
2018-08-20T06:23:42.840Z,1.00
2018-08-20T06:26:11.513Z,99.90
2018-08-20T06:28:40.139Z,1.00
2018-08-20T06:31:08.666Z,99.90
2018-08-20T06:33:37.119Z,1.00
2018-08-20T06:36:05.705Z,1.00
2018-08-20T06:38:34.188Z,99.90
2018-08-20T06:41:02.688Z,1.00
2018-08-20T06:43:31.151Z,1.00
2018-08-20T06:45:59.629Z,99.90
2018-08-20T06:48:28.223Z,99.90
2018-08-20T06:50:56.668Z,99.90
2018-08-20T06:53:25.174Z,99.90
2018-08-20T06:55:53.641Z,99.90
2018-08-20T06:58:22.110Z,99.90
2018-08-20T07:00:50.630Z,99.90
2018-08-20T07:03:19.083Z,99.90
2018-08-20T07:05:47.574Z,99.90
2018-08-20T07:08:16.118Z,99.90
2018-08-20T07:10:47.733Z,99.90
2018-08-20T07:13:32.274Z,99.90
2018-08-20T07:16:00.839Z,99.90
2018-08-20T07:18:29.312Z,99.90
2018-08-20T07:20:58.115Z,99.90
2018-08-20T07:23:26.967Z,99.90
2018-08-20T07:25:55.443Z,99.90
2018-08-20T07:28:24.030Z,99.90
2018-08-20T07:30:52.677Z,99.90
2018-08-20T07:33:21.196Z,99.90
2018-08-20T07:35:49.740Z,99.90
2018-08-20T07:38:18.298Z,99.90
2018-08-20T07:40:46.745Z,99.90
2018-08-20T07:43:15.568Z,99.90
2018-08-20T07:45:44.059Z,99.90
2018-08-20T07:48:12.621Z,99.90
2018-08-20T07:50:41.255Z,99.90
2018-08-20T07:53:09.815Z,99.90
2018-08-20T07:55:38.343Z,99.90
2018-08-20T07:58:07.515Z,99.90
2018-08-20T08:00:36.095Z,99.90
2018-08-20T08:03:04.837Z,99.90
2018-08-20T08:05:33.426Z,99.90
2018-08-20T08:08:02.041Z,99.90
2018-08-20T08:10:30.510Z,99.90
2018-08-20T08:12:59.005Z,99.90
2018-08-20T08:15:27.557Z,99.90
2018-08-20T08:17:56.131Z,99.90
2018-08-20T08:20:24.641Z,99.90
2018-08-20T08:22:53.108Z,99.90
2018-08-20T08:25:21.614Z,99.90
2018-08-20T08:27:50.100Z,99.90
2018-08-20T08:30:19.523Z,99.90
2018-08-20T08:32:48.358Z,99.90
2018-08-20T08:35:16.888Z,99.90
2018-08-20T08:37:45.478Z,99.90
2018-08-20T08:40:15.196Z,99.90
2018-08-20T08:42:43.986Z,99.90
2018-08-20T08:45:15.252Z,99.90
2018-08-20T08:47:44.524Z,99.90
2018-08-20T08:50:13.741Z,99.90
2018-08-20T08:52:42.502Z,99.90
2018-08-20T08:55:11.170Z,99.90
2018-08-20T08:57:40.032Z,99.90
2018-08-20T09:00:17.006Z,99.90
2018-08-20T09:02:45.976Z,99.90
2018-08-20T09:05:14.813Z,99.90
2018-08-20T09:07:43.948Z,99.90
2018-08-20T09:10:12.799Z,99.90
2018-08-20T09:12:41.534Z,99.90
2018-08-20T09:15:13.915Z,99.90
2018-08-20T09:17:42.659Z,99.90
2018-08-20T09:20:13.543Z,99.90
2018-08-20T09:22:42.122Z,99.90
2018-08-20T09:25:11.863Z,99.90
2018-08-20T09:27:40.951Z,99.90
2018-08-20T09:30:13.851Z,99.90
2018-08-20T09:32:42.546Z,99.90
2018-08-20T09:35:11.039Z,99.90
2018-08-20T09:37:40.009Z,99.90
2018-08-20T09:40:09.510Z,99.90
2018-08-20T09:42:38.805Z,99.90
2018-08-20T09:45:07.587Z,99.90
2018-08-20T09:47:38.822Z,99.90
2018-08-20T09:50:09.044Z,99.90
2018-08-20T09:52:37.543Z,99.90
2018-08-20T09:55:06.828Z,99.90
2018-08-20T09:57:35.310Z,99.90
2018-08-20T10:00:05.245Z,99.90
2018-08-20T10:02:33.842Z,99.90
2018-08-20T10:05:02.418Z,99.90
2018-08-20T10:07:30.903Z,99.90
2018-08-20T10:09:59.382Z,99.90
2018-08-20T10:12:27.847Z,99.90
2018-08-20T10:14:56.803Z,99.90
2018-08-20T10:17:25.326Z,99.90
2018-08-20T10:19:53.913Z,99.90
2018-08-20T10:22:22.387Z,99.90
2018-08-20T10:24:50.840Z,99.90
2018-08-20T10:27:19.295Z,99.90
2018-08-20T10:29:47.871Z,99.90
2018-08-20T10:32:16.317Z,99.90
2018-08-20T10:34:44.790Z,99.90
2018-08-20T10:37:13.261Z,99.90
2018-08-20T10:39:41.793Z,99.90
2018-08-20T10:42:10.391Z,99.90
2018-08-20T10:44:44.157Z,99.90
2018-08-20T10:47:12.634Z,99.90
2018-08-20T10:49:41.161Z,99.90
2018-08-20T10:52:10.043Z,99.90
2018-08-20T10:54:38.504Z,99.90
2018-08-20T10:57:07.799Z,99.90
2018-08-20T10:59:36.738Z,99.90
2018-08-20T11:02:05.251Z,99.90
2018-08-20T11:04:33.746Z,99.90
2018-08-20T11:07:02.263Z,99.90
2018-08-20T11:09:30.837Z,99.90
2018-08-20T11:11:59.735Z,99.90
2018-08-20T11:14:28.423Z,99.90
2018-08-20T11:16:57.004Z,99.90
2018-08-20T11:19:25.459Z,99.90
2018-08-20T11:21:53.936Z,99.90
2018-08-20T11:24:22.398Z,99.90
2018-08-20T11:26:50.936Z,99.90
2018-08-20T11:29:20.019Z,99.90
2018-08-20T11:31:48.535Z,99.90
2018-08-20T11:34:17.388Z,99.90
2018-08-20T11:36:46.057Z,99.90
2018-08-20T11:39:14.403Z,99.90
2018-08-20T11:41:42.864Z,99.90
2018-08-20T11:44:11.414Z,99.90
2018-08-20T11:46:39.892Z,99.90
2018-08-20T11:49:08.493Z,99.90
2018-08-20T11:51:36.932Z,99.90
2018-08-20T11:54:05.423Z,99.90
2018-08-20T11:56:33.944Z,99.90
2018-08-20T11:59:02.448Z,99.90
2018-08-20T12:01:31.205Z,99.90
2018-08-20T12:03:59.695Z,99.90
2018-08-20T12:06:28.141Z,99.90
2018-08-20T12:08:56.605Z,99.90
2018-08-20T12:11:25.077Z,99.90
2018-08-20T12:13:53.541Z,99.90
2018-08-20T12:16:22.015Z,99.90
2018-08-20T12:18:50.584Z,99.90
2018-08-20T12:21:19.033Z,99.90
2018-08-20T12:23:47.481Z,99.90
2018-08-20T12:26:15.958Z,99.90
2018-08-20T12:28:44.393Z,99.90
2018-08-20T12:31:12.886Z,99.90
2018-08-20T12:33:41.382Z,99.90
2018-08-20T12:36:09.894Z,99.90
2018-08-20T12:38:38.406Z,99.90
2018-08-20T12:41:07.039Z,99.90
2018-08-20T12:43:35.682Z,99.90
2018-08-20T12:46:04.466Z,99.90
2018-08-20T12:48:32.989Z,99.90
2018-08-20T12:51:01.467Z,99.90
2018-08-20T12:53:29.923Z,99.90
2018-08-20T12:55:58.441Z,99.90
2018-08-20T12:58:26.921Z,99.90
2018-08-20T13:00:55.540Z,99.90
2018-08-20T13:03:23.961Z,99.90
2018-08-20T13:05:52.479Z,99.90
2018-08-20T13:08:21.150Z,99.90
2018-08-20T13:10:49.639Z,99.90
2018-08-20T13:13:18.091Z,99.90
2018-08-20T13:15:46.642Z,99.90
2018-08-20T13:18:15.076Z,99.90
2018-08-20T13:20:43.520Z,99.90
2018-08-20T13:23:12.036Z,99.90
2018-08-20T13:25:40.507Z,99.90
2018-08-20T13:28:09.048Z,99.90
2018-08-20T13:30:37.709Z,99.90
2018-08-20T13:33:07.095Z,99.90
2018-08-20T13:35:35.573Z,99.90
2018-08-20T13:38:04.099Z,99.90
2018-08-20T13:40:32.584Z,99.90
2018-08-20T13:43:01.156Z,99.90
2018-08-20T13:45:29.749Z,99.90
2018-08-20T13:47:58.426Z,99.90
2018-08-20T13:50:27.045Z,99.90
2018-08-20T13:52:55.545Z,99.90
2018-08-20T13:55:24.093Z,99.90
2018-08-20T13:57:52.612Z,99.90
2018-08-20T14:00:21.879Z,99.90
2018-08-20T14:02:50.393Z,99.90
2018-08-20T14:05:18.879Z,99.90
2018-08-20T14:07:48.108Z,99.90
2018-08-20T14:10:16.716Z,99.90
2018-08-20T14:12:45.197Z,99.90
2018-08-20T14:15:14.587Z,99.90
2018-08-20T14:17:43.820Z,99.90
2018-08-20T14:20:14.268Z,99.90
2018-08-20T14:22:43.775Z,99.90
2018-08-20T14:25:12.575Z,99.90
2018-08-20T14:27:41.026Z,99.90
2018-08-20T14:30:11.927Z,99.90
2018-08-20T14:32:40.408Z,99.90
2018-08-20T14:35:10.051Z,99.90
2018-08-20T14:37:38.979Z,99.90
2018-08-20T14:40:13.997Z,99.90
2018-08-20T14:42:42.858Z,99.90
2018-08-20T14:45:13.112Z,99.90
2018-08-20T14:47:42.526Z,99.90
2018-08-20T14:50:15.214Z,99.90
2018-08-20T14:52:44.046Z,99.90
2018-08-20T14:55:13.159Z,99.90
2018-08-20T14:57:42.201Z,99.90
2018-08-20T15:00:13.613Z,99.90
2018-08-20T15:02:42.246Z,99.90
2018-08-20T15:05:10.840Z,99.90
2018-08-20T15:07:39.317Z,99.90
2018-08-20T15:10:08.973Z,99.90
2018-08-20T15:12:37.452Z,99.90
2018-08-20T15:15:07.055Z,99.90
2018-08-20T15:17:35.593Z,99.90
2018-08-20T15:20:04.881Z,99.90
2018-08-20T15:22:33.331Z,99.90
2018-08-20T15:25:01.818Z,99.90
2018-08-20T15:27:30.263Z,99.90
2018-08-20T15:29:58.987Z,99.90
2018-08-20T15:32:27.509Z,99.90
2018-08-20T15:34:55.994Z,99.90
2018-08-20T15:37:24.494Z,99.90
2018-08-20T15:39:52.976Z,99.90
2018-08-20T15:42:21.512Z,99.90
2018-08-20T15:44:49.980Z,99.90
2018-08-20T15:47:18.513Z,99.90
2018-08-20T15:49:47.015Z,99.90
2018-08-20T15:52:15.474Z,99.90
2018-08-20T15:54:44.050Z,99.90
2018-08-20T15:57:12.543Z,99.90
2018-08-20T15:59:41.146Z,99.90
2018-08-20T16:02:09.775Z,99.90
2018-08-20T16:04:38.394Z,99.90
2018-08-20T16:07:06.879Z,99.90
2018-08-20T16:09:35.373Z,99.90
2018-08-20T16:12:04.016Z,99.90
2018-08-20T16:14:32.507Z,99.90
2018-08-20T16:17:00.954Z,99.90
2018-08-20T16:19:29.494Z,99.90
2018-08-20T16:21:58.003Z,99.90
2018-08-20T16:24:26.472Z,99.90
2018-08-20T16:26:54.951Z,99.90
2018-08-20T16:29:23.406Z,99.90
2018-08-20T16:31:51.929Z,99.90
2018-08-20T16:34:20.400Z,99.90
2018-08-20T16:36:48.926Z,99.90
2018-08-20T16:39:17.674Z,99.90
2018-08-20T16:41:46.198Z,99.90
2018-08-20T16:44:14.783Z,99.90
2018-08-20T16:46:43.262Z,99.90
2018-08-20T16:49:11.944Z,99.90
2018-08-20T16:51:40.446Z,99.90
2018-08-20T16:54:09.335Z,99.90
2018-08-20T16:56:37.885Z,99.90
2018-08-20T16:59:06.435Z,99.90
2018-08-20T17:01:34.995Z,99.90
2018-08-20T17:04:03.588Z,99.90
2018-08-20T17:06:47.956Z,99.90
2018-08-20T17:09:16.392Z,99.90
2018-08-20T17:11:44.924Z,99.90
2018-08-20T17:14:13.542Z,99.90
2018-08-20T17:16:42.230Z,99.90
2018-08-20T17:19:10.684Z,99.90
2018-08-20T17:21:39.183Z,99.90
2018-08-20T17:24:07.715Z,99.90
2018-08-20T17:26:36.357Z,99.90
2018-08-20T17:29:11.872Z,99.90
2018-08-20T17:31:40.397Z,99.90
2018-08-20T17:34:09.033Z,99.90
2018-08-20T17:36:39.211Z,99.90
2018-08-20T17:39:08.884Z,99.90
2018-08-20T17:41:37.442Z,99.90
2018-08-20T17:44:06.058Z,99.90
2018-08-20T17:46:34.589Z,99.90
2018-08-20T17:49:04.660Z,99.90
2018-08-20T17:51:33.191Z,99.90
2018-08-20T17:54:01.760Z,99.90
2018-08-20T17:56:30.309Z,99.90
2018-08-20T17:59:04.189Z,99.90
2018-08-20T18:01:36.868Z,99.90
2018-08-20T18:04:05.871Z,99.90
2018-08-20T18:06:49.650Z,99.90
2018-08-20T18:09:19.147Z,99.90
2018-08-20T18:11:49.576Z,99.90
2018-08-20T18:14:19.562Z,99.90
2018-08-20T18:16:48.298Z,99.90
2018-08-20T18:19:17.663Z,99.90
2018-08-20T18:21:46.357Z,99.90
2018-08-20T18:24:19.815Z,99.90
2018-08-20T18:26:50.466Z,99.90
2018-08-20T18:29:19.025Z,99.90
2018-08-20T18:31:54.184Z,99.90
2018-08-20T18:34:22.809Z,99.90
2018-08-20T18:36:51.619Z,99.90
2018-08-20T18:39:20.281Z,99.90
2018-08-20T18:41:58.286Z,99.90
2018-08-20T18:44:27.096Z,99.90
2018-08-20T18:46:55.894Z,99.90
2018-08-20T18:49:28.481Z,99.90
2018-08-20T18:52:06.718Z,99.90
2018-08-20T18:54:36.946Z,99.90
2018-08-20T18:57:06.547Z,99.90
2018-08-20T18:59:36.765Z,99.90
2018-08-20T19:02:05.844Z,99.90
2018-08-20T19:04:39.835Z,99.90
2018-08-20T19:07:13.597Z,99.90
2018-08-20T19:09:46.332Z,99.90
2018-08-20T19:12:14.894Z,99.90
2018-08-20T19:14:43.740Z,99.90
2018-08-20T19:17:18.532Z,99.90
2018-08-20T19:19:50.041Z,99.90
2018-08-20T19:22:23.773Z,99.90
2018-08-20T19:24:55.215Z,99.90
2018-08-20T19:27:30.386Z,99.90
2018-08-20T19:30:07.635Z,99.90
2018-08-20T19:32:36.192Z,99.90
2018-08-20T19:35:04.807Z,99.90
2018-08-20T19:37:33.342Z,99.90
2018-08-20T19:40:01.836Z,99.90
2018-08-20T19:42:34.109Z,99.90
2018-08-20T19:45:04.920Z,99.90
2018-08-20T19:47:33.907Z,1.00
2018-08-20T19:50:02.526Z,1.00
2018-08-20T19:52:31.124Z,1.00
2018-08-20T19:55:07.514Z,1.00
2018-08-20T19:57:36.457Z,1.00
2018-08-20T20:00:09.056Z,1.00
2018-08-20T20:02:38.297Z,1.00
2018-08-20T20:05:06.927Z,1.00
2018-08-20T20:07:39.394Z,1.00
2018-08-20T20:10:11.283Z,3.60
2018-08-20T20:12:45.172Z,86.10
2018-08-20T20:15:13.637Z,99.90
2018-08-20T20:17:42.153Z,99.90
2018-08-20T20:20:10.606Z,99.90
2018-08-20T20:22:39.111Z,99.90
2018-08-20T20:25:07.762Z,99.90
2018-08-20T20:27:36.313Z,1.00
2018-08-20T20:30:06.307Z,99.90
2018-08-20T20:32:34.822Z,99.90
2018-08-20T20:35:03.358Z,99.90
2018-08-20T20:37:31.949Z,2.20
2018-08-20T20:40:01.775Z,99.90
2018-08-20T20:42:31.776Z,99.90
2018-08-20T20:45:00.567Z,99.90
2018-08-20T20:47:29.062Z,1.00
2018-08-20T20:49:57.618Z,89.90
2018-08-20T20:52:26.298Z,99.90
2018-08-20T20:54:54.932Z,1.00
2018-08-20T20:57:23.460Z,1.00
2018-08-20T20:59:52.015Z,1.00
2018-08-20T21:02:20.645Z,99.90
2018-08-20T21:04:49.257Z,37.40
2018-08-20T21:07:22.074Z,1.00
2018-08-20T21:09:50.614Z,99.90
2018-08-20T21:12:19.373Z,21.70
2018-08-20T21:14:47.933Z,99.90
2018-08-20T21:17:16.432Z,99.90
2018-08-20T21:19:45.078Z,1.00
2018-08-20T21:22:13.648Z,1.00
2018-08-20T21:24:42.224Z,71.90
2018-08-20T21:27:29.579Z,99.90
2018-08-20T21:30:00.277Z,99.90
2018-08-20T21:32:29.223Z,99.90
2018-08-20T21:34:57.677Z,1.00
2018-08-20T21:37:26.267Z,1.00
2018-08-20T21:39:54.762Z,99.90
2018-08-20T21:42:29.849Z,99.90
2018-08-20T21:44:58.895Z,78.40
2018-08-20T21:47:28.821Z,99.90
2018-08-20T21:49:57.442Z,99.90
2018-08-20T21:52:26.290Z,99.90
2018-08-20T21:54:54.804Z,99.90
2018-08-20T21:57:23.299Z,99.90
2018-08-20T22:00:03.436Z,99.90
2018-08-20T22:02:32.886Z,1.00
2018-08-20T22:05:01.435Z,1.00
2018-08-20T22:07:29.947Z,1.00
2018-08-20T22:09:58.501Z,1.00
2018-08-20T22:12:27.369Z,1.00
2018-08-20T22:14:56.036Z,1.00
2018-08-20T22:17:29.970Z,1.00
2018-08-20T22:19:59.124Z,1.00
2018-08-20T22:22:28.243Z,1.00
2018-08-20T22:25:00.016Z,1.00
2018-08-20T22:27:29.414Z,1.00
2018-08-20T22:30:01.631Z,1.00
2018-08-20T22:32:30.903Z,1.00
2018-08-20T22:34:59.783Z,1.00
2018-08-20T22:37:28.259Z,1.00
2018-08-20T22:40:02.187Z,1.00
2018-08-20T22:42:42.708Z,1.00
2018-08-20T22:45:13.290Z,1.00
2018-08-20T22:47:42.114Z,1.00
2018-08-20T22:50:10.605Z,1.00
2018-08-20T22:52:41.638Z,1.00
2018-08-20T22:55:10.564Z,1.00
2018-08-20T22:57:39.910Z,1.00
2018-08-20T23:00:17.714Z,1.00
2018-08-20T23:02:46.300Z,1.00
2018-08-20T23:05:15.090Z,1.00
2018-08-20T23:07:43.798Z,1.00
2018-08-20T23:10:12.514Z,1.00
2018-08-20T23:12:41.916Z,1.00
2018-08-20T23:15:11.914Z,1.00
2018-08-20T23:17:40.661Z,1.00
2018-08-20T23:20:22.938Z,1.00
2018-08-20T23:22:51.434Z,1.00
2018-08-20T23:25:19.940Z,1.00
2018-08-20T23:27:50.589Z,1.00
2018-08-20T23:30:19.674Z,1.00
2018-08-20T23:32:48.564Z,1.00
2018-08-20T23:35:17.030Z,1.00
2018-08-20T23:37:45.510Z,1.00
2018-08-20T23:40:14.267Z,1.00
2018-08-20T23:42:42.802Z,1.00
2018-08-20T23:45:11.322Z,1.00
2018-08-20T23:47:39.814Z,1.00
2018-08-20T23:50:08.439Z,1.00
2018-08-20T23:52:36.934Z,6.30
2018-08-20T23:55:05.654Z,6.40
2018-08-20T23:57:34.120Z,6.00
